Time;durP1;ratioP1;P1;durP2;ratioP2;P2;SDS_P1;SDS_P2;PMS_P1;PMS_P2;Temp;Humidity;BMP_temperature;BMP_pressure;BME280_temperature;BME280_humidity;BME280_pressure;Samples;Min_cycle;Max_cycle;Signal;HPM_P1;HPM_P2
2020/12/25 00:01:34;;;;;;;0.47;0.38;;;;;;;;;;4984320;28;20589;-78
2020/12/25 00:04:00;;;;;;;0.47;0.40;;;;;;;;;;4984279;28;20126;-77
2020/12/25 00:06:33;;;;;;;0.40;0.40;;;;;;;;;;4984712;28;20042;-79
2020/12/25 00:09:00;;;;;;;0.57;0.40;;;;;;;;;;4985131;28;20035;-79
2020/12/25 00:11:36;;;;;;;0.80;0.50;;;;;;;;;;4969735;28;20105;-78
2020/12/25 00:14:03;;;;;;;0.60;0.60;;;;;;;;;;4985343;28;20490;-78
2020/12/25 00:16:29;;;;;;;0.95;0.57;;;;;;;;;;4984764;28;20476;-78
2020/12/25 00:18:55;;;;;;;0.60;0.60;;;;;;;;;;4985078;28;20014;-78
2020/12/25 00:21:22;;;;;;;0.68;0.60;;;;;;;;;;4970417;28;20031;-78
2020/12/25 00:23:48;;;;;;;0.88;0.75;;;;;;;;;;4988901;28;20023;-78
2020/12/25 00:26:40;;;;;;;0.63;0.63;;;;;;;;;;5005221;28;20031;-78
2020/12/25 00:29:06;;;;;;;1.00;0.75;;;;;;;;;;5010159;28;20030;-78
2020/12/25 00:31:38;;;;;;;0.85;0.70;;;;;;;;;;5008929;28;20180;-78
2020/12/25 00:34:05;;;;;;;0.90;0.77;;;;;;;;;;5007385;28;20096;-79
2020/12/25 00:36:32;;;;;;;0.80;0.80;;;;;;;;;;5009091;28;20045;-79
2020/12/25 00:38:59;;;;;;;1.42;0.90;;;;;;;;;;5010729;28;20021;-79
2020/12/25 00:41:26;;;;;;;2.03;1.05;;;;;;;;;;5011488;28;20112;-78
2020/12/25 00:43:52;;;;;;;1.23;0.90;;;;;;;;;;5013520;28;20026;-79
2020/12/25 00:46:18;;;;;;;1.50;1.02;;;;;;;;;;5013601;28;20030;-77
2020/12/25 00:48:44;;;;;;;1.83;1.00;;;;;;;;;;5012881;28;20032;-79
2020/12/25 00:51:14;;;;;;;1.50;0.90;;;;;;;;;;5012127;28;20056;-78
2020/12/25 00:53:41;;;;;;;1.33;1.02;;;;;;;;;;5013617;28;20088;-79
2020/12/25 00:56:07;;;;;;;2.10;1.30;;;;;;;;;;5011440;28;20396;-80
2020/12/25 00:58:33;;;;;;;3.63;1.50;;;;;;;;;;5013035;28;20033;-79
2020/12/25 01:00:59;;;;;;;2.55;1.02;;;;;;;;;;5012642;28;20030;-79
2020/12/25 01:03:25;;;;;;;1.75;1.10;;;;;;;;;;5012580;28;20109;-78
2020/12/25 01:05:51;;;;;;;1.55;1.10;;;;;;;;;;5011233;28;20176;-79
2020/12/25 01:08:17;;;;;;;2.08;1.23;;;;;;;;;;5011002;28;20636;-78
2020/12/25 01:10:43;;;;;;;1.60;1.30;;;;;;;;;;5012356;28;20161;-79
2020/12/25 01:13:09;;;;;;;2.08;1.25;;;;;;;;;;5011260;28;20049;-78
2020/12/25 01:15:35;;;;;;;1.40;1.10;;;;;;;;;;5010663;28;20373;-79
2020/12/25 01:18:01;;;;;;;2.22;0.90;;;;;;;;;;5012785;28;20026;-80
2020/12/25 01:20:27;;;;;;;0.93;0.82;;;;;;;;;;5012246;28;20022;-80
2020/12/25 01:22:53;;;;;;;1.52;1.00;;;;;;;;;;5011071;28;20352;-78
2020/12/25 01:25:19;;;;;;;4.10;1.10;;;;;;;;;;5010419;28;20025;-79
2020/12/25 01:27:45;;;;;;;2.60;1.00;;;;;;;;;;5010535;28;20200;-78
2020/12/25 01:30:11;;;;;;;1.40;1.10;;;;;;;;;;5010818;28;20567;-77
2020/12/25 01:32:37;;;;;;;1.77;1.02;;;;;;;;;;5010589;28;20049;-78
2020/12/25 01:35:03;;;;;;;1.70;1.10;;;;;;;;;;5010050;28;20417;-79
2020/12/25 01:37:29;;;;;;;1.63;1.17;;;;;;;;;;5011736;28;20097;-78
2020/12/25 01:39:55;;;;;;;2.97;1.40;;;;;;;;;;5010384;28;20440;-79
2020/12/25 01:42:21;;;;;;;2.03;1.20;;;;;;;;;;5010714;28;20033;-79
2020/12/25 01:44:47;;;;;;;2.42;1.63;;;;;;;;;;5010067;28;20032;-79
2020/12/25 01:47:17;;;;;;;2.83;1.70;;;;;;;;;;5011517;28;20365;-79
2020/12/25 01:49:44;;;;;;;4.35;2.30;;;;;;;;;;5009037;28;20029;-77
2020/12/25 01:52:10;;;;;;;2.60;1.80;;;;;;;;;;5009606;28;20064;-77
2020/12/25 01:54:36;;;;;;;2.70;1.73;;;;;;;;;;5011192;28;20030;-78
2020/12/25 01:57:02;;;;;;;4.00;2.00;;;;;;;;;;5011669;28;20029;-78
2020/12/25 01:59:29;;;;;;;2.92;1.85;;;;;;;;;;5010593;28;20076;-78
2020/12/25 02:01:55;;;;;;;3.63;1.80;;;;;;;;;;5012082;28;20105;-78
2020/12/25 02:04:21;;;;;;;3.97;1.75;;;;;;;;;;5009538;28;20345;-78
2020/12/25 02:06:47;;;;;;;3.92;1.88;;;;;;;;;;5011790;28;20034;-77
2020/12/25 02:09:13;;;;;;;3.60;2.17;;;;;;;;;;5011943;28;20034;-78
2020/12/25 02:11:39;;;;;;;3.40;2.10;;;;;;;;;;5010150;28;20362;-77
2020/12/25 02:14:05;;;;;;;4.53;1.95;;;;;;;;;;5009823;28;20026;-78
2020/12/25 02:16:31;;;;;;;3.35;2.10;;;;;;;;;;5010559;28;20109;-78
2020/12/25 02:18:57;;;;;;;5.00;1.88;;;;;;;;;;5011647;28;20493;-78
2020/12/25 02:21:23;;;;;;;4.43;2.22;;;;;;;;;;5011891;28;20121;-78
2020/12/25 02:23:49;;;;;;;5.45;2.55;;;;;;;;;;5011747;28;20124;-79
2020/12/25 02:26:15;;;;;;;5.30;2.20;;;;;;;;;;5009643;28;20029;-79
2020/12/25 02:28:41;;;;;;;3.38;2.20;;;;;;;;;;5010835;28;20048;-78
2020/12/25 02:31:07;;;;;;;5.38;2.17;;;;;;;;;;5011803;28;20032;-78
2020/12/25 02:33:34;;;;;;;3.60;2.40;;;;;;;;;;5002959;28;20485;-79
2020/12/25 02:36:00;;;;;;;3.70;2.40;;;;;;;;;;4986273;28;20118;-79
2020/12/25 02:38:27;;;;;;;4.57;2.30;;;;;;;;;;4988168;28;20117;-78
2020/12/25 02:40:53;;;;;;;4.43;2.25;;;;;;;;;;4988335;28;20023;-79
2020/12/25 02:43:19;;;;;;;3.30;2.15;;;;;;;;;;4973852;28;20027;-79
2020/12/25 02:45:45;;;;;;;4.18;2.30;;;;;;;;;;4988767;28;20054;-79
2020/12/25 02:48:11;;;;;;;3.72;2.08;;;;;;;;;;4973895;28;20050;-79
2020/12/25 02:50:37;;;;;;;5.15;2.00;;;;;;;;;;4988104;28;20030;-78
2020/12/25 02:53:04;;;;;;;4.72;2.50;;;;;;;;;;4988134;28;20540;-78
2020/12/25 02:55:30;;;;;;;5.03;2.40;;;;;;;;;;4972714;28;20038;-79
2020/12/25 02:57:56;;;;;;;3.00;2.10;;;;;;;;;;4987626;28;20015;-79
2020/12/25 03:00:21;;;;;;;4.75;2.10;;;;;;;;;;4987971;28;20512;-78
2020/12/25 03:02:47;;;;;;;3.58;2.22;;;;;;;;;;4973905;28;20030;-79
2020/12/25 03:05:13;;;;;;;3.67;2.08;;;;;;;;;;4988588;28;20529;-80
2020/12/25 03:07:39;;;;;;;3.58;2.13;;;;;;;;;;4988982;28;20019;-79
2020/12/25 03:10:05;;;;;;;2.75;2.00;;;;;;;;;;4988773;28;20246;-80
2020/12/25 03:12:31;;;;;;;3.25;2.40;;;;;;;;;;4988743;28;20042;-79
2020/12/25 03:14:57;;;;;;;3.55;2.20;;;;;;;;;;4973751;28;20075;-79
2020/12/25 03:17:23;;;;;;;4.40;2.30;;;;;;;;;;4988418;28;20390;-78
2020/12/25 03:19:49;;;;;;;4.55;2.47;;;;;;;;;;4988756;28;20506;-78
2020/12/25 03:22:15;;;;;;;4.30;2.20;;;;;;;;;;4973556;28;20479;-79
2020/12/25 03:24:41;;;;;;;3.97;2.17;;;;;;;;;;4973349;28;20023;-78
2020/12/25 03:27:07;;;;;;;3.67;2.13;;;;;;;;;;4988355;28;20037;-79
2020/12/25 03:29:33;;;;;;;3.38;1.88;;;;;;;;;;4973595;28;20030;-79
2020/12/25 03:31:59;;;;;;;3.35;1.95;;;;;;;;;;4988159;28;20642;-78
2020/12/25 03:34:28;;;;;;;3.20;1.90;;;;;;;;;;4973497;28;20034;-80
2020/12/25 03:36:54;;;;;;;3.28;1.92;;;;;;;;;;4973360;28;20030;-79
2020/12/25 03:39:20;;;;;;;3.05;1.65;;;;;;;;;;4988940;28;20034;-79
2020/12/25 03:41:46;;;;;;;3.75;1.90;;;;;;;;;;4973368;28;20023;-79
2020/12/25 03:44:12;;;;;;;3.28;1.90;;;;;;;;;;4988822;28;20034;-78
2020/12/25 03:46:38;;;;;;;2.13;1.60;;;;;;;;;;4988234;28;20105;-78
2020/12/25 03:49:05;;;;;;;3.20;1.80;;;;;;;;;;4973740;28;20097;-79
2020/12/25 03:51:31;;;;;;;2.90;1.83;;;;;;;;;;4973910;28;20027;-77
2020/12/25 03:53:57;;;;;;;3.75;1.80;;;;;;;;;;4988812;28;20566;-80
2020/12/25 03:56:23;;;;;;;2.92;1.85;;;;;;;;;;4990188;28;20027;-79
2020/12/25 03:58:49;;;;;;;2.63;1.73;;;;;;;;;;4973919;28;20031;-80
2020/12/25 04:01:15;;;;;;;3.15;1.40;;;;;;;;;;4988827;28;20054;-79
2020/12/25 04:03:41;;;;;;;2.53;1.60;;;;;;;;;;5004542;28;20120;-80
2020/12/25 04:06:07;;;;;;;3.33;1.77;;;;;;;;;;5010268;28;20449;-80
2020/12/25 04:08:33;;;;;;;2.47;1.58;;;;;;;;;;5011684;28;20037;-78
2020/12/25 04:10:59;;;;;;;2.40;1.42;;;;;;;;;;5011024;28;20385;-78
2020/12/25 04:13:25;;;;;;;2.20;1.35;;;;;;;;;;5009161;28;20056;-79
2020/12/25 04:15:51;;;;;;;2.67;1.60;;;;;;;;;;5011337;28;20026;-79
2020/12/25 04:18:17;;;;;;;4.15;2.13;;;;;;;;;;5010107;28;20401;-79
2020/12/25 04:20:43;;;;;;;3.40;1.10;;;;;;;;;;5011127;28;20091;-79
2020/12/25 04:23:09;;;;;;;1.95;1.17;;;;;;;;;;5011534;28;20072;-78
2020/12/25 04:25:35;;;;;;;1.80;0.95;;;;;;;;;;5011627;28;20730;-79
2020/12/25 04:28:01;;;;;;;1.52;1.00;;;;;;;;;;5010128;28;20034;-79
2020/12/25 04:30:27;;;;;;;1.25;0.90;;;;;;;;;;5011685;28;20560;-79
2020/12/25 04:32:53;;;;;;;1.90;1.00;;;;;;;;;;5010119;28;20041;-78
2020/12/25 04:35:20;;;;;;;1.50;1.10;;;;;;;;;;5010006;28;20041;-79
2020/12/25 04:37:46;;;;;;;1.50;1.00;;;;;;;;;;5009443;28;20473;-79
2020/12/25 04:40:12;;;;;;;1.63;1.08;;;;;;;;;;5009552;28;20036;-79
2020/12/25 04:42:41;;;;;;;1.42;0.93;;;;;;;;;;5010754;28;20030;-78
2020/12/25 04:45:10;;;;;;;3.35;1.17;;;;;;;;;;5010238;28;20037;-79
2020/12/25 04:47:37;;;;;;;2.28;1.13;;;;;;;;;;5009011;28;20116;-79
2020/12/25 04:50:03;;;;;;;1.70;1.17;;;;;;;;;;5010692;28;20041;-79
2020/12/25 04:52:29;;;;;;;1.73;1.17;;;;;;;;;;5010055;28;20575;-78
2020/12/25 04:54:55;;;;;;;2.10;1.50;;;;;;;;;;5009416;28;20022;-79
2020/12/25 04:57:21;;;;;;;1.83;1.10;;;;;;;;;;5008896;28;20502;-79
2020/12/25 04:59:47;;;;;;;3.22;1.10;;;;;;;;;;5009177;28;20050;-78
2020/12/25 05:02:15;;;;;;;2.35;1.27;;;;;;;;;;5010347;28;20097;-78
2020/12/25 05:04:41;;;;;;;1.67;1.20;;;;;;;;;;5008781;28;20099;-79
2020/12/25 05:07:07;;;;;;;2.83;1.20;;;;;;;;;;5008829;28;20065;-78
2020/12/25 05:09:33;;;;;;;1.60;1.10;;;;;;;;;;5009273;28;20034;-78
2020/12/25 05:11:59;;;;;;;2.25;1.13;;;;;;;;;;5008867;28;20041;-80
2020/12/25 05:14:30;;;;;;;1.88;1.05;;;;;;;;;;5010491;28;20030;-78
2020/12/25 05:16:57;;;;;;;2.88;1.17;;;;;;;;;;5010077;28;20030;-78
2020/12/25 05:19:32;;;;;;;1.85;1.15;;;;;;;;;;5010320;28;20026;-78
2020/12/25 05:22:00;;;;;;;2.50;1.13;;;;;;;;;;5009462;28;20076;-79
2020/12/25 05:24:27;;;;;;;2.85;1.50;;;;;;;;;;5010898;28;20025;-78
2020/12/25 05:26:57;;;;;;;2.00;1.40;;;;;;;;;;5013148;28;20036;-78
2020/12/25 05:29:24;;;;;;;2.45;1.77;;;;;;;;;;5013153;28;20392;-78
2020/12/25 05:31:50;;;;;;;2.30;1.60;;;;;;;;;;5011196;28;20117;-78
2020/12/25 05:34:20;;;;;;;3.45;1.80;;;;;;;;;;5011879;28;20033;-78
2020/12/25 05:36:50;;;;;;;2.22;1.60;;;;;;;;;;5012076;28;20029;-78
2020/12/25 05:39:25;;;;;;;3.22;1.95;;;;;;;;;;5012782;28;20045;-78
2020/12/25 05:41:54;;;;;;;2.97;2.13;;;;;;;;;;5011117;28;20393;-79
2020/12/25 05:44:20;;;;;;;2.67;2.00;;;;;;;;;;5010680;28;20052;-78
2020/12/25 05:46:46;;;;;;;4.18;2.33;;;;;;;;;;5010700;28;20076;-78
2020/12/25 05:49:12;;;;;;;3.47;2.55;;;;;;;;;;5012463;28;20030;-78
2020/12/25 05:51:59;;;;;;;3.22;2.67;;;;;;;;;;5011189;28;20034;-79
2020/12/25 05:54:25;;;;;;;3.55;2.20;;;;;;;;;;5010476;28;20050;-78
2020/12/25 05:56:55;;;;;;;3.78;2.58;;;;;;;;;;5012475;28;20123;-79
2020/12/25 05:59:26;;;;;;;3.40;2.50;;;;;;;;;;5011732;28;20030;-77
2020/12/25 06:01:56;;;;;;;3.88;2.60;;;;;;;;;;5011481;28;20061;-79
2020/12/25 06:04:29;;;;;;;3.50;2.30;;;;;;;;;;5010475;28;20025;-79
2020/12/25 06:06:56;;;;;;;3.65;2.42;;;;;;;;;;5012369;28;20053;-78
2020/12/25 06:09:34;;;;;;;4.20;2.08;;;;;;;;;;5012682;28;20038;-78
2020/12/25 06:12:01;;;;;;;3.30;2.30;;;;;;;;;;5011894;28;20033;-78
2020/12/25 06:14:27;;;;;;;3.70;2.20;;;;;;;;;;5012381;28;20100;-79
2020/12/25 06:16:53;;;;;;;4.20;2.80;;;;;;;;;;5011051;28;20116;-79
2020/12/25 06:19:22;;;;;;;4.10;2.53;;;;;;;;;;5010618;28;20018;-79
2020/12/25 06:21:53;;;;;;;6.93;4.13;;;;;;;;;;5011007;28;20034;-77
2020/12/25 06:24:19;;;;;;;5.82;3.20;;;;;;;;;;5010150;28;20018;-78
2020/12/25 06:26:50;;;;;;;5.05;2.63;;;;;;;;;;5011099;28;20025;-78
2020/12/25 06:29:17;;;;;;;6.10;3.90;;;;;;;;;;5011056;28;20082;-79
2020/12/25 06:31:44;;;;;;;5.25;3.38;;;;;;;;;;5011439;28;20420;-77
2020/12/25 06:34:10;;;;;;;6.55;3.53;;;;;;;;;;5010312;28;20104;-78
2020/12/25 06:36:36;;;;;;;5.72;3.50;;;;;;;;;;5010476;28;20026;-77
2020/12/25 06:39:09;;;;;;;5.65;3.47;;;;;;;;;;5011263;28;20465;-77
2020/12/25 06:41:37;;;;;;;4.65;3.22;;;;;;;;;;5011140;28;20032;-76
2020/12/25 06:44:06;;;;;;;6.78;4.07;;;;;;;;;;5009795;28;20014;-78
2020/12/25 06:46:34;;;;;;;6.25;3.08;;;;;;;;;;5011339;28;20034;-78
2020/12/25 06:49:05;;;;;;;5.35;3.70;;;;;;;;;;5010815;28;20018;-77
2020/12/25 06:51:31;;;;;;;5.25;3.58;;;;;;;;;;5011150;28;20457;-76
2020/12/25 06:53:58;;;;;;;4.97;3.40;;;;;;;;;;5010421;28;20469;-78
2020/12/25 06:56:24;;;;;;;5.05;3.63;;;;;;;;;;5011674;28;20080;-78
2020/12/25 06:58:56;;;;;;;6.53;3.90;;;;;;;;;;5013164;28;20026;-78
2020/12/25 07:01:37;;;;;;;6.32;4.25;;;;;;;;;;5013327;28;20026;-78
2020/12/25 07:04:04;;;;;;;7.43;4.00;;;;;;;;;;5012022;28;20115;-78
2020/12/25 07:06:31;;;;;;;5.93;3.83;;;;;;;;;;5011332;28;20063;-77
2020/12/25 07:09:08;;;;;;;5.28;3.13;;;;;;;;;;5013028;28;20034;-77
2020/12/25 07:11:34;;;;;;;7.38;4.05;;;;;;;;;;5012022;28;20610;-78
2020/12/25 07:14:00;;;;;;;6.25;3.67;;;;;;;;;;5010333;28;20048;-77
2020/12/25 07:16:26;;;;;;;8.15;4.32;;;;;;;;;;5008852;28;20052;-77
2020/12/25 07:18:52;;;;;;;6.43;4.05;;;;;;;;;;5009980;28;20153;-77
2020/12/25 07:21:18;;;;;;;5.65;3.90;;;;;;;;;;5010573;28;20057;-78
2020/12/25 07:23:45;;;;;;;6.05;3.97;;;;;;;;;;5008957;28;20173;-76
2020/12/25 07:26:11;;;;;;;7.05;4.25;;;;;;;;;;5010216;28;20103;-77
2020/12/25 07:28:38;;;;;;;6.00;4.37;;;;;;;;;;5008492;28;20030;-76
2020/12/25 07:31:04;;;;;;;6.47;4.28;;;;;;;;;;5010235;28;20028;-78
2020/12/25 07:33:30;;;;;;;6.15;4.32;;;;;;;;;;5010552;28;20040;-78
2020/12/25 07:35:56;;;;;;;6.32;4.20;;;;;;;;;;5008929;28;20026;-76
2020/12/25 07:38:22;;;;;;;7.18;4.85;;;;;;;;;;5008430;28;20022;-78
2020/12/25 07:40:48;;;;;;;8.30;4.80;;;;;;;;;;5008316;28;20022;-78
2020/12/25 07:43:14;;;;;;;8.52;5.20;;;;;;;;;;5008415;28;20026;-77
2020/12/25 07:45:40;;;;;;;8.13;4.60;;;;;;;;;;5008115;28;20062;-78
2020/12/25 07:48:07;;;;;;;8.00;4.97;;;;;;;;;;5008019;28;20072;-77
2020/12/25 07:50:40;;;;;;;5.75;4.13;;;;;;;;;;5008083;28;20744;-75
2020/12/25 07:53:08;;;;;;;7.85;4.55;;;;;;;;;;5007972;28;20026;-78
2020/12/25 07:55:34;;;;;;;8.57;5.45;;;;;;;;;;5008803;28;20021;-78
2020/12/25 07:58:01;;;;;;;6.00;4.05;;;;;;;;;;5008508;28;20029;-77
2020/12/25 08:00:27;;;;;;;8.02;4.72;;;;;;;;;;5008710;28;20428;-76
2020/12/25 08:02:54;;;;;;;8.23;4.70;;;;;;;;;;5009164;28;20045;-77
2020/12/25 08:05:20;;;;;;;5.13;3.92;;;;;;;;;;5008591;28;20021;-76
2020/12/25 08:07:47;;;;;;;5.25;3.92;;;;;;;;;;5007667;28;20033;-76
2020/12/25 08:10:14;;;;;;;6.30;4.00;;;;;;;;;;5009288;28;20030;-77
2020/12/25 08:12:41;;;;;;;4.43;3.08;;;;;;;;;;5007741;28;20100;-77
2020/12/25 08:15:07;;;;;;;4.72;3.78;;;;;;;;;;5008514;28;20472;-77
2020/12/25 08:17:33;;;;;;;5.28;3.35;;;;;;;;;;5008800;28;20076;-77
2020/12/25 08:20:01;;;;;;;5.60;3.50;;;;;;;;;;5008623;28;20030;-76
2020/12/25 08:22:27;;;;;;;6.35;3.85;;;;;;;;;;5009442;28;20022;-78
2020/12/25 08:24:54;;;;;;;5.55;3.90;;;;;;;;;;5009277;28;20365;-78
2020/12/25 08:27:20;;;;;;;5.40;4.05;;;;;;;;;;5009844;28;20022;-78
2020/12/25 08:29:49;;;;;;;6.03;3.80;;;;;;;;;;5010004;28;20033;-78
2020/12/25 08:32:15;;;;;;;5.45;3.75;;;;;;;;;;5008635;28;20525;-78
2020/12/25 08:34:41;;;;;;;8.07;6.03;;;;;;;;;;5008750;28;20428;-78
2020/12/25 08:37:09;;;;;;;6.60;3.47;;;;;;;;;;5007833;28;20033;-77
2020/12/25 08:39:35;;;;;;;6.22;4.22;;;;;;;;;;5010025;28;20033;-78
2020/12/25 08:42:02;;;;;;;6.30;4.70;;;;;;;;;;5007787;28;20113;-77
2020/12/25 08:44:28;;;;;;;6.13;4.03;;;;;;;;;;5008466;28;20581;-78
2020/12/25 08:47:08;;;;;;;5.55;4.47;;;;;;;;;;5007136;28;20128;-79
2020/12/25 08:49:34;;;;;;;6.90;5.50;;;;;;;;;;5008693;28;20032;-77
2020/12/25 08:52:00;;;;;;;7.03;5.22;;;;;;;;;;5007394;28;20410;-77
2020/12/25 08:54:27;;;;;;;6.53;4.80;;;;;;;;;;5009037;28;20034;-79
2020/12/25 08:56:53;;;;;;;7.50;5.40;;;;;;;;;;4979141;28;20041;-79
2020/12/25 08:59:20;;;;;;;7.18;5.35;;;;;;;;;;4970859;28;20106;-78
2020/12/25 09:01:47;;;;;;;10.93;7.10;;;;;;;;;;4971962;28;20022;-76
2020/12/25 09:04:17;;;;;;;39.65;20.98;;;;;;;;;;4972429;28;20030;-76
2020/12/25 09:06:43;;;;;;;12.65;7.70;;;;;;;;;;4973679;28;20023;-77
2020/12/25 09:09:09;;;;;;;10.25;7.13;;;;;;;;;;4973338;28;20398;-76
2020/12/25 09:11:36;;;;;;;11.80;9.05;;;;;;;;;;4972175;28;20034;-78
2020/12/25 09:14:02;;;;;;;12.63;9.40;;;;;;;;;;4971961;28;20241;-78
2020/12/25 09:16:28;;;;;;;15.07;9.02;;;;;;;;;;4973194;28;20031;-77
2020/12/25 09:18:54;;;;;;;20.73;11.50;;;;;;;;;;4973169;28;20105;-78
2020/12/25 09:21:20;;;;;;;31.90;13.85;;;;;;;;;;4971665;28;20107;-78
2020/12/25 09:23:46;;;;;;;18.35;10.13;;;;;;;;;;4971451;28;20022;-77
2020/12/25 09:26:13;;;;;;;16.35;10.35;;;;;;;;;;4972058;28;20090;-78
2020/12/25 09:28:40;;;;;;;11.68;8.40;;;;;;;;;;4973016;28;20035;-76
2020/12/25 09:31:07;;;;;;;13.07;9.82;;;;;;;;;;4971494;28;20037;-78
2020/12/25 09:33:33;;;;;;;;;;;;;;;;;;4973043;28;20034;-76
2020/12/25 09:35:59;;;;;;;14.02;9.20;;;;;;;;;;4997839;28;19914;-77
2020/12/25 09:38:28;;;;;;;12.82;8.90;;;;;;;;;;5010179;28;20596;-76
2020/12/25 09:40:54;;;;;;;16.52;10.05;;;;;;;;;;5011284;28;20092;-76
2020/12/25 09:43:20;;;;;;;13.55;9.98;;;;;;;;;;5011344;28;20698;-78
2020/12/25 09:45:46;;;;;;;13.30;9.63;;;;;;;;;;5008901;28;20038;-77
2020/12/25 09:48:13;;;;;;;20.58;14.63;;;;;;;;;;5010159;28;20432;-77
2020/12/25 09:50:39;;;;;;;22.17;13.27;;;;;;;;;;5009845;28;20029;-75
2020/12/25 09:53:05;;;;;;;20.45;14.27;;;;;;;;;;5009554;28;20026;-76
2020/12/25 09:55:36;;;;;;;23.23;14.65;;;;;;;;;;5010079;28;20056;-75
2020/12/25 09:58:03;;;;;;;26.25;17.20;;;;;;;;;;5010653;28;20018;-76
2020/12/25 10:00:29;;;;;;;23.73;17.05;;;;;;;;;;5010805;28;20024;-75
2020/12/25 10:02:55;;;;;;;19.60;12.82;;;;;;;;;;5009470;28;20022;-76
2020/12/25 10:05:21;;;;;;;20.88;14.75;;;;;;;;;;5008637;28;20064;-77
2020/12/25 10:07:48;;;;;;;19.38;13.52;;;;;;;;;;5010794;28;20022;-76
2020/12/25 10:10:14;;;;;;;22.90;13.85;;;;;;;;;;5008522;28;20056;-78
2020/12/25 10:12:40;;;;;;;18.13;13.20;;;;;;;;;;5009105;28;20057;-76
2020/12/25 10:15:07;;;;;;;20.10;13.65;;;;;;;;;;5010958;28;20093;-76
2020/12/25 10:17:34;;;;;;;22.35;14.02;;;;;;;;;;5009714;28;20124;-75
2020/12/25 10:20:00;;;;;;;15.32;10.90;;;;;;;;;;5011957;28;20492;-78
2020/12/25 10:22:26;;;;;;;16.13;11.40;;;;;;;;;;5011249;28;20073;-78
2020/12/25 10:24:52;;;;;;;20.15;12.05;;;;;;;;;;5005535;28;20026;-77
2020/12/25 10:27:18;;;;;;;20.35;12.88;;;;;;;;;;5003535;28;20092;-77
2020/12/25 10:29:45;;;;;;;18.83;13.55;;;;;;;;;;4989334;28;20033;-76
2020/12/25 10:32:11;;;;;;;15.25;10.75;;;;;;;;;;4990557;28;20120;-77
2020/12/25 10:34:37;;;;;;;15.45;10.77;;;;;;;;;;4988919;28;20074;-76
2020/12/25 10:37:03;;;;;;;21.33;12.15;;;;;;;;;;4990492;28;20555;-77
2020/12/25 10:39:29;;;;;;;16.35;11.40;;;;;;;;;;4990914;28;20026;-78
2020/12/25 10:41:55;;;;;;;18.90;11.73;;;;;;;;;;4991066;28;20149;-76
2020/12/25 10:44:21;;;;;;;21.85;16.50;;;;;;;;;;4990591;28;20030;-77
2020/12/25 10:46:47;;;;;;;22.35;13.45;;;;;;;;;;4989384;28;20080;-76
2020/12/25 10:49:16;;;;;;;20.33;13.48;;;;;;;;;;4991379;28;20026;-78
2020/12/25 10:51:46;;;;;;;21.40;12.55;;;;;;;;;;4987692;28;20117;-77
2020/12/25 10:54:12;;;;;;;18.30;12.20;;;;;;;;;;4990372;28;20030;-75
2020/12/25 10:56:38;;;;;;;17.48;10.85;;;;;;;;;;4991044;28;20478;-80
2020/12/25 10:59:04;;;;;;;16.33;10.40;;;;;;;;;;4986054;28;20046;-79
2020/12/25 11:01:31;;;;;;;17.52;9.65;;;;;;;;;;4974533;28;20494;-79
2020/12/25 11:03:57;;;;;;;14.25;9.30;;;;;;;;;;4991064;28;20615;-80
2020/12/25 11:06:33;;;;;;;15.10;9.20;;;;;;;;;;4988384;28;20026;-79
2020/12/25 11:09:00;;;;;;;15.57;9.93;;;;;;;;;;4990320;28;20495;-79
2020/12/25 11:11:27;;;;;;;13.93;10.52;;;;;;;;;;4987881;28;20050;-78
2020/12/25 11:13:53;;;;;;;11.55;8.65;;;;;;;;;;5005730;28;20032;-79
2020/12/25 11:16:26;;;;;;;14.18;8.45;;;;;;;;;;5009497;28;20057;-79
2020/12/25 11:18:53;;;;;;;14.70;9.50;;;;;;;;;;4982669;28;20114;-77
2020/12/25 11:21:20;;;;;;;13.07;7.40;;;;;;;;;;4970490;28;20023;-78
2020/12/25 11:23:46;;;;;;;15.48;8.45;;;;;;;;;;4970953;28;20115;-79
2020/12/25 11:26:22;;;;;;;12.75;7.85;;;;;;;;;;4970768;28;20034;-78
2020/12/25 11:28:49;;;;;;;13.45;8.27;;;;;;;;;;4971418;28;20035;-79
2020/12/25 11:31:15;;;;;;;13.15;8.60;;;;;;;;;;4985714;28;20358;-78
2020/12/25 11:33:42;;;;;;;11.90;7.65;;;;;;;;;;4989065;28;20030;-78
2020/12/25 11:36:12;;;;;;;27.52;14.38;;;;;;;;;;4988759;28;20040;-78
2020/12/25 11:38:38;;;;;;;12.48;8.30;;;;;;;;;;4988218;28;20417;-78
2020/12/25 11:41:06;;;;;;;86.95;37.78;;;;;;;;;;4991424;28;20026;-79
2020/12/25 11:43:32;;;;;;;19.58;12.35;;;;;;;;;;4989849;28;20029;-80
2020/12/25 11:45:58;;;;;;;11.40;7.97;;;;;;;;;;4990441;28;20579;-79
2020/12/25 11:48:24;;;;;;;13.45;7.28;;;;;;;;;;4989858;28;20026;-79
2020/12/25 11:50:51;;;;;;;18.65;12.82;;;;;;;;;;4990336;28;20038;-78
2020/12/25 11:53:17;;;;;;;23.10;16.73;;;;;;;;;;4989359;28;20069;-76
2020/12/25 11:55:43;;;;;;;11.35;7.38;;;;;;;;;;4988329;28;20064;-78
2020/12/25 11:58:09;;;;;;;11.00;7.30;;;;;;;;;;4990681;28;20428;-77
2020/12/25 12:00:35;;;;;;;12.07;8.25;;;;;;;;;;4989984;28;20104;-79
2020/12/25 12:03:01;;;;;;;12.98;7.90;;;;;;;;;;4990267;28;20026;-78
2020/12/25 12:05:27;;;;;;;13.15;7.95;;;;;;;;;;4993693;28;20022;-77
2020/12/25 12:07:53;;;;;;;12.00;7.68;;;;;;;;;;4994463;28;20563;-79
2020/12/25 12:10:19;;;;;;;11.00;7.50;;;;;;;;;;5007162;28;20113;-81
2020/12/25 12:12:45;;;;;;;12.45;8.15;;;;;;;;;;5001369;28;20677;-77
2020/12/25 12:15:11;;;;;;;13.90;8.20;;;;;;;;;;4989830;28;20125;-78
2020/12/25 12:17:37;;;;;;;15.07;8.07;;;;;;;;;;4989709;28;20030;-78
2020/12/25 12:20:04;;;;;;;10.68;6.60;;;;;;;;;;4988641;28;20034;-78
2020/12/25 12:22:30;;;;;;;12.98;6.72;;;;;;;;;;4988798;28;20054;-78
2020/12/25 12:24:56;;;;;;;11.63;6.63;;;;;;;;;;4988357;28;20030;-77
2020/12/25 12:27:22;;;;;;;10.63;6.72;;;;;;;;;;4988076;28;20035;-78
2020/12/25 12:29:48;;;;;;;12.20;7.72;;;;;;;;;;4988238;28;20489;-78
2020/12/25 12:32:14;;;;;;;12.18;7.15;;;;;;;;;;4984101;28;20034;-79
2020/12/25 12:34:40;;;;;;;12.63;7.80;;;;;;;;;;4987938;28;20030;-78
2020/12/25 12:37:06;;;;;;;14.15;9.10;;;;;;;;;;4993299;28;20023;-79
2020/12/25 12:39:32;;;;;;;13.82;8.48;;;;;;;;;;4986395;28;20383;-78
2020/12/25 12:41:58;;;;;;;10.18;7.57;;;;;;;;;;4977011;28;20489;-78
2020/12/25 12:44:25;;;;;;;11.80;7.22;;;;;;;;;;4992663;28;20031;-78
2020/12/25 12:46:54;;;;;;;13.60;7.57;;;;;;;;;;4992906;28;20409;-78
2020/12/25 12:49:20;;;;;;;11.40;6.75;;;;;;;;;;4995172;28;20046;-79
2020/12/25 12:51:46;;;;;;;12.55;7.18;;;;;;;;;;4994749;28;20113;-78
2020/12/25 12:54:12;;;;;;;11.20;6.75;;;;;;;;;;4996307;28;20168;-78
2020/12/25 12:56:38;;;;;;;13.20;6.70;;;;;;;;;;4995277;28;20037;-78
2020/12/25 12:59:04;;;;;;;11.13;7.35;;;;;;;;;;4993590;28;20025;-77
2020/12/25 13:01:31;;;;;;;9.65;6.10;;;;;;;;;;4986687;28;20490;-78
2020/12/25 13:03:57;;;;;;;15.05;8.68;;;;;;;;;;4986456;28;20058;-79
2020/12/25 13:06:23;;;;;;;12.43;6.97;;;;;;;;;;4996373;28;20445;-78
2020/12/25 13:08:49;;;;;;;14.07;7.85;;;;;;;;;;4996580;28;20025;-78
2020/12/25 13:11:23;;;;;;;10.85;6.40;;;;;;;;;;5004128;28;20022;-78
2020/12/25 13:13:49;;;;;;;12.48;6.95;;;;;;;;;;5017440;28;20030;-76
2020/12/25 13:16:19;;;;;;;11.43;7.13;;;;;;;;;;5000933;28;20077;-79
2020/12/25 13:18:45;;;;;;;12.13;7.10;;;;;;;;;;4997705;28;20053;-78
2020/12/25 13:21:18;;;;;;;9.90;7.18;;;;;;;;;;4996517;28;20030;-77
2020/12/25 13:23:44;;;;;;;11.32;6.82;;;;;;;;;;4996859;28;20045;-78
2020/12/25 13:26:10;;;;;;;13.80;11.02;;;;;;;;;;4995032;28;20030;-78
2020/12/25 13:28:36;;;;;;;11.82;7.70;;;;;;;;;;4995729;28;20030;-77
2020/12/25 13:31:02;;;;;;;13.88;7.65;;;;;;;;;;4994345;28;20049;-78
2020/12/25 13:33:28;;;;;;;38.15;21.92;;;;;;;;;;4995450;28;20030;-78
2020/12/25 13:35:54;;;;;;;19.25;10.93;;;;;;;;;;4994056;28;20033;-78
2020/12/25 13:38:20;;;;;;;18.10;11.45;;;;;;;;;;4994292;28;20088;-76
2020/12/25 13:40:46;;;;;;;47.58;24.42;;;;;;;;;;5013218;28;20022;-77
2020/12/25 13:43:12;;;;;;;10.05;6.25;;;;;;;;;;5015490;28;20024;-77
2020/12/25 13:45:38;;;;;;;12.02;6.05;;;;;;;;;;5013955;28;20028;-78
2020/12/25 13:48:04;;;;;;;11.02;7.25;;;;;;;;;;5012223;28;20443;-78
2020/12/25 13:50:30;;;;;;;8.07;5.18;;;;;;;;;;5010372;28;20022;-78
2020/12/25 13:52:57;;;;;;;9.43;5.72;;;;;;;;;;5010376;28;20045;-78
2020/12/25 13:55:23;;;;;;;9.50;6.20;;;;;;;;;;5010332;28;20034;-79
2020/12/25 13:57:51;;;;;;;9.10;5.57;;;;;;;;;;5010778;28;20018;-77
2020/12/25 14:00:17;;;;;;;7.30;5.13;;;;;;;;;;5009444;28;20022;-78
2020/12/25 14:02:43;;;;;;;7.75;5.07;;;;;;;;;;5010481;28;20112;-78
2020/12/25 14:05:09;;;;;;;8.65;5.95;;;;;;;;;;5011177;28;20101;-78
2020/12/25 14:07:35;;;;;;;7.68;5.50;;;;;;;;;;5011371;28;20030;-77
2020/12/25 14:10:01;;;;;;;6.90;4.88;;;;;;;;;;5010778;28;20026;-77
2020/12/25 14:12:27;;;;;;;9.70;6.28;;;;;;;;;;5009489;28;20405;-75
2020/12/25 14:14:53;;;;;;;10.05;6.30;;;;;;;;;;5010757;28;20034;-76
2020/12/25 14:17:19;;;;;;;8.20;5.18;;;;;;;;;;5009367;28;20468;-76
2020/12/25 14:19:45;;;;;;;8.77;5.65;;;;;;;;;;5010022;28;20488;-75
2020/12/25 14:22:11;;;;;;;10.30;5.50;;;;;;;;;;5009171;28;20116;-78
2020/12/25 14:24:37;;;;;;;9.27;5.97;;;;;;;;;;4991485;28;20018;-78
2020/12/25 14:27:03;;;;;;;7.32;4.70;;;;;;;;;;4990312;28;20030;-78
2020/12/25 14:29:29;;;;;;;9.00;5.00;;;;;;;;;;4990072;28;20023;-77
2020/12/25 14:31:55;;;;;;;8.18;5.18;;;;;;;;;;4989568;28;20080;-78
2020/12/25 14:34:22;;;;;;;7.22;5.13;;;;;;;;;;4989859;28;20513;-77
2020/12/25 14:36:56;;;;;;;7.82;5.30;;;;;;;;;;4988446;28;20459;-79